Terminal Aerodrome Forecast
Issued by NWS Paducah, KY

Home | Current Version | Previous Version | Text Only | Print | Product List | Glossary On
Versions: 1 2 3 4 5 6 7 8 9 10 11 12 13 14 15 16 17 18 19 20 21 22 23 24 25
000
FTUS43 KPAH 270115 AAA
TAFEVV
TAF AMD
KEVV 270115Z 2701/2724 18015G22KT P6SM SCT025 BKN060
     FM270200 18012G20KT 6SM -SHRA SCT025 OVC040
      TEMPO 2702/2706 24025G35KT 2SM TSRA OVC015CB
     FM270800 24011KT 4SM -DZ OVC015
     FM271400 25010KT P6SM OVC020
     FM272100 25008KT P6SM BKN050=

USA.gov is the U.S. government's official web portal to all federal, state and local government web resources and services.